Flight Track Log - Related Links

Times and Time Zones

All times are in EDT time to prevent confusion due to time zone crossing. See the SWA508 flight status page for this flight to view local times or setup timezone preferences in your user account.

Time Position Orientation Groundspeed Altitude Reporting Facility
EDT Latitude Longitude Course Direction KTS MPH feet Rate Location/Type
Mon 01:12:36 PM 41.7667 -87.7667 346° North 144 166 1,900  Level Chicago TRACON
Mon 01:13:36 PM 41.8167 -87.7833 346° North 242 278 3,000 1,024 Climbing Chicago TRACON
Mon 01:16:07 PM 41.7867 -87.5658 100° East 260 299 5,500 1,915 Climbing Chicago Center
Mon 01:17:09 PM 41.7953 -87.4458 84° East 272 313 9,800 3,707 Climbing Chicago Center
Mon 01:18:10 PM 41.7978 -87.3369 88° East 288 331 13,100 2,780 Climbing Chicago Center
Mon 01:19:12 PM 41.7814 -87.2203 101° East 315 362 15,500 2,323 Climbing Chicago Center
Mon 01:20:14 PM 41.7650 -87.0853 99° East 360 414 17,900 2,565 Climbing Chicago Center
Mon 01:21:16 PM 41.7642 -86.9453 90° East 378 435 20,800 2,613 Climbing Chicago Center
Mon 01:22:18 PM 41.7644 -86.7983 90° East 392 451 23,300 2,341 Climbing Chicago Center
Mon 01:23:19 PM 41.7664 -86.6275 89° East 409 471 25,600 1,984 Climbing Chicago Center
Mon 01:24:22 PM 41.7675 -86.4667 89° East 430 495 27,400 1,728 Climbing Chicago Center
Mon 01:25:24 PM 41.7678 -86.3011 90° East 443 510 29,200 1,694 Climbing Chicago Center
Mon 01:26:26 PM 41.7703 -86.1322 89° East 453 521 30,900 1,951 Climbing Chicago Center
Mon 01:27:27 PM 41.7725 -85.9283 89° East 458 527 33,200 1,707 Climbing Chicago Center
Mon 01:28:29 PM 41.7747 -85.7583 89° East 457 526 34,400 1,210 Climbing Chicago Center
Mon 01:29:31 PM 41.7761 -85.5822 89° East 466 536 35,700 1,306 Climbing Chicago Center
Mon 01:30:33 PM 41.7772 -85.4031 89° East 471 542 37,100 1,210 Climbing Chicago Center
Mon 01:31:35 PM 41.7772 -85.2269 90° East 467 537 38,200 871 Climbing Chicago Center
Mon 01:32:37 PM 41.7778 -85.0536 90° East 463 533 38,900 387 Climbing Chicago Center
Mon 01:33:39 PM 41.7786 -84.8769 90° East 471 542 39,000 48 Climbing Chicago Center
Mon 01:34:41 PM 41.7775 -84.7000 90° East 473 544 39,000  Level Chicago Center
Mon 01:35:49 PM 41.7792 -84.4761 89° East 475 547 39,000  Level Cleveland Center
Mon 01:36:49 PM 41.7808 -84.2981 89° East 475 547 39,000  Level Cleveland Center
Mon 01:37:49 PM 41.7739 -84.1222 93° East 475 547 39,000  Level Cleveland Center
Mon 01:38:49 PM 41.7708 -83.9494 91° East 475 547 39,000  Level Cleveland Center
Mon 01:39:49 PM 41.7694 -83.7767 91° East 470 541 39,000  Level Cleveland Center
Mon 01:40:49 PM 41.7681 -83.6039 91° East 470 541 39,000  Level Cleveland Center
Mon 01:41:49 PM 41.7578 -83.4364 95° East 459 528 39,000  Level Cleveland Center
Mon 01:42:49 PM 41.7408 -83.2658 98° East 459 528 39,000  Level Cleveland Center
Mon 01:43:49 PM 41.7239 -83.1011 98° East 459 528 39,000  Level Cleveland Center
Mon 01:44:49 PM 41.7086 -82.9281 97° East 459 528 39,000  Level Cleveland Center
Mon 01:45:49 PM 41.6808 -82.7600 102° East 464 534 39,000  Level Cleveland Center
Mon 01:46:49 PM 41.6033 -82.6603 136° Southeast 430 495 39,000  Level Cleveland Center
Mon 01:47:49 PM 41.5008 -82.5711 147° Southeast 429 494 39,000  Level Cleveland Center
Mon 01:48:49 PM 41.3981 -82.4847 148° Southeast 435 501 39,000  Level Cleveland Center
Mon 01:49:49 PM 41.2889 -82.3906 147° Southeast 435 501 39,000  Level Cleveland Center
Mon 01:51:00 PM 41.2605 -82.2178 102° East  Level Estimated
Mon 01:51:49 PM 41.0853 -82.2139 102° East 435 501 39,000  Level Cleveland Center
Mon 01:52:49 PM 40.9864 -82.1289 147° Southeast 435 501 39,000  Level Cleveland Center
Mon 01:53:49 PM 40.8919 -82.0250 140° Southeast 435 501 39,000  Level Cleveland Center
Mon 01:54:49 PM 40.8458 -81.8706 111° Southeast 435 501 39,000  Level Cleveland Center
Mon 01:55:49 PM 40.8517 -81.7003 87° East 435 501 39,000  Level Cleveland Center
Mon 01:56:49 PM 40.9178 -81.5531 59° Northeast 444 511 39,000  Level Cleveland Center
Mon 01:57:49 PM 41.0167 -81.4444 40° Northeast 444 511 39,000  Level Cleveland Center
Mon 01:58:49 PM 41.0800 -81.2994 60° Northeast 445 512 39,000  Level Cleveland Center
Mon 01:59:49 PM 41.0644 -81.1311 97° East 438 504 39,000  Level Cleveland Center
Mon 02:00:49 PM 41.0294 -80.9822 107° East 449 517 39,000  Level Cleveland Center
Mon 02:01:49 PM 40.9883 -80.8253 109° East 449 517 39,000  Level Cleveland Center
Mon 02:02:49 PM 40.9469 -80.6656 109° East 455 524 39,000  Level Cleveland Center
Mon 02:03:49 PM 40.9031 -80.5061 110° East 460 529 39,000  Level Cleveland Center
Mon 02:04:49 PM 40.8592 -80.3497 110° East 460 529 39,000  Level Cleveland Center
Mon 02:05:49 PM 40.8192 -80.1964 109° East 449 517 39,000  Level Cleveland Center
Mon 02:06:49 PM 40.7642 -80.0431 115° Southeast 449 517 39,000  Level Cleveland Center
Mon 02:07:49 PM 40.7050 -79.8983 118° Southeast 449 517 39,000  Level Cleveland Center
Mon 02:08:49 PM 40.6067 -79.8064 145° Southeast 424 488 39,000 -250 Level Cleveland Center
Mon 02:09:49 PM 40.5056 -79.6983 141° Southeast 424 488 38,500 -750 Descending Cleveland Center
Mon 02:10:49 PM 40.4689 -79.5378 107° East 429 494 37,500 -1,000 Descending Cleveland Center
Mon 02:11:49 PM 40.4361 -79.3800 105° East 429 494 36,500 -900 Descending Cleveland Center
Mon 02:12:49 PM 40.4011 -79.2389 108° East 441 507 35,700 -950 Descending Cleveland Center
Mon 02:13:49 PM 40.3636 -79.0625 106° East 447 514 34,600 -1,050 Descending Cleveland Center
Mon 02:14:49 PM 40.3300 -78.9028 105° East 452 520 33,600 -950 Descending Cleveland Center
Mon 02:15:49 PM 40.3150 -78.7369 97° East 452 520 32,700 -1,213 Descending Cleveland Center
Mon 02:17:52 PM 40.3147 -78.4072 90° East 452 520 29,900 -1,508 Descending New York Center
Mon 02:18:52 PM 40.3142 -78.2547 90° East 431 496 28,100 -1,736 Descending New York Center
Mon 02:19:53 PM 40.3128 -78.1075 91° East 417 480 26,400 -1,525 Descending New York Center
Mon 02:20:54 PM 40.3133 -77.9658 90° East 398 458 25,000 -966 Descending New York Center
Mon 02:21:51 PM 40.3553 -77.8558 63° Northeast 366 421 24,500 -763 Descending New York Center
Mon 02:22:52 PM 40.3981 -77.7347 65° Northeast 366 421 23,500 -984 Descending New York Center
Mon 02:23:53 PM 40.3781 -77.6100 102° East 333 383 22,500 -992 Descending New York Center
Mon 02:24:53 PM 40.3033 -77.5319 141° Southeast 307 353 21,500 -1,008 Descending New York Center
Mon 02:25:52 PM 40.2617 -77.4217 116° Southeast 322 371 20,500 -1,059 Descending New York Center
Mon 02:26:52 PM 40.2756 -77.2842 82° East 322 371 19,400 -1,041 Descending New York Center
Mon 02:27:53 PM 40.2908 -77.1578 81° East 335 386 18,400 -706 Descending New York Center
Mon 02:28:51 PM 40.2947 -77.0464 87° East 340 391 18,000 -756 Descending New York Center
Mon 02:29:52 PM 40.2661 -76.9189 106° East 334 384 16,900 -689 Descending New York Center
Mon 02:30:53 PM 40.2408 -76.8022 106° East 334 384 16,600 -605 Descending New York Center
Mon 02:31:51 PM 40.2167 -76.6997 107° East 329 379 15,700 -1,050 Descending New York Center
Mon 02:32:53 PM 40.1894 -76.5778 106° East 324 373 14,500 -1,525 Descending New York Center
Mon 02:33:53 PM 40.1614 -76.4694 109° East 324 373 12,600 -1,854 Descending New York Center
Mon 02:34:56 PM 40.1342 -76.3472 106° East 324 373 10,700 -1,590 Descending FAA TRACON SMA TRACON (SMA)
Mon 02:35:16 PM 40.1239 -76.3122 111° Southeast 319 367 10,400 -900 Descending FAA TRACON SMA TRACON (SMA)
Mon 02:35:36 PM 40.1189 -76.2794 101° East 315 362 10,100 -600 Descending FAA TRACON SMA TRACON (SMA)
Mon 02:35:56 PM 40.1164 -76.2381 95° East 291 335 10,000 -150 Descending FAA TRACON SMA TRACON (SMA)
Mon 02:36:16 PM 40.1147 -76.2061 94° East 284 327 10,000  Level FAA TRACON SMA TRACON (SMA)
Mon 02:36:36 PM 40.1117 -76.1758 98° East 280 322 10,000  Level FAA TRACON SMA TRACON (SMA)
Mon 02:36:56 PM 40.1092 -76.1369 95° East 279 321 10,000  Level FAA TRACON SMA TRACON (SMA)
Mon 02:37:15 PM 40.1075 -76.1058 94° East 279 321 10,000 -154 Level FAA TRACON SMA TRACON (SMA)
Mon 02:37:35 PM 40.1058 -76.0753 94° East 278 320 9,900 -750 Descending FAA TRACON SMA TRACON (SMA)
Mon 02:37:55 PM 40.1031 -76.0383 96° East 276 318 9,500 -1,200 Descending FAA TRACON SMA TRACON (SMA)
Mon 02:38:15 PM 40.0997 -76.0056 98° East 273 314 9,100 -900 Descending FAA TRACON SMA TRACON (SMA)
Mon 02:38:35 PM 40.0983 -75.9772 94° East 271 312 8,900 -600 Descending FAA TRACON SMA TRACON (SMA)
Mon 02:38:55 PM 40.0961 -75.9475 96° East 266 306 8,700 -600 Descending FAA TRACON SMA TRACON (SMA)
Mon 02:39:15 PM 40.0942 -75.9150 94° East 240 276 8,500 -600 Descending FAA TRACON SMA TRACON (SMA)
Mon 02:39:35 PM 40.0919 -75.8889 96° East 232 267 8,300 -750 Descending FAA TRACON SMA TRACON (SMA)
Mon 02:39:55 PM 40.0897 -75.8578 95° East 229 264 8,000 -439 Descending FAA TRACON SMA TRACON (SMA)
Mon 02:40:16 PM 40.0883 -75.8347 94° East 226 260 8,000  Level FAA TRACON SMA TRACON (SMA)
Mon 02:40:36 PM 40.0858 -75.8075 97° East 224 258 8,000 -600 Level FAA TRACON SMA TRACON (SMA)
Mon 02:40:56 PM 40.0842 -75.7764 94° East 224 258 7,600 -900 Descending FAA TRACON SMA TRACON (SMA)
Mon 02:41:16 PM 40.0825 -75.7531 95° East 222 255 7,400 -750 Descending FAA TRACON SMA TRACON (SMA)
Mon 02:41:36 PM 40.0806 -75.7278 96° East 217 250 7,100 -1,050 Descending FAA TRACON SMA TRACON (SMA)
Mon 02:41:56 PM 40.0797 -75.6981 92° East 214 246 6,700 -1,050 Descending FAA TRACON SMA TRACON (SMA)
Mon 02:42:16 PM 40.0781 -75.6756 96° East 212 244 6,400 -900 Descending FAA TRACON SMA TRACON (SMA)
Mon 02:42:36 PM 40.0775 -75.6511 92° East 211 243 6,100 -600 Descending FAA TRACON SMA TRACON (SMA)
Mon 02:42:56 PM 40.0764 -75.6219 93° East 211 243 6,000 -154 Descending FAA TRACON SMA TRACON (SMA)
Mon 02:43:15 PM 40.0750 -75.5989 94° East 210 242 6,000  Level FAA TRACON SMA TRACON (SMA)
Mon 02:43:35 PM 40.0739 -75.5747 93° East 211 243 6,000  Level FAA TRACON SMA TRACON (SMA)
Mon 02:43:55 PM 40.0728 -75.5514 94° East 209 241 6,000  Level FAA TRACON SMA TRACON (SMA)
Mon 02:44:15 PM 40.0708 -75.5231 95° East 208 239 6,000  Level FAA TRACON SMA TRACON (SMA)
Mon 02:44:35 PM 40.0697 -75.5000 94° East 207 238 6,000 -600 Level FAA TRACON SMA TRACON (SMA)
Mon 02:44:55 PM 40.0689 -75.4758 93° East 210 242 5,600 -1,050 Descending FAA TRACON SMA TRACON (SMA)
Mon 02:45:15 PM 40.0656 -75.4483 99° East 208 239 5,300 -900 Descending FAA TRACON SMA TRACON (SMA)
Mon 02:45:35 PM 40.0647 -75.4236 93° East 204 235 5,000 -900 Descending FAA TRACON SMA TRACON (SMA)
Mon 02:45:55 PM 40.0514 -75.4083 139° Southeast 223 257 4,700 -1,050 Descending FAA TRACON SMA TRACON (SMA)
Mon 02:46:15 PM 40.0317 -75.3997 162° South 219 252 4,300 -900 Descending FAA TRACON SMA TRACON (SMA)
Mon 02:46:35 PM 40.0125 -75.3931 165° South 208 239 4,100 -450 Descending FAA TRACON SMA TRACON (SMA)
Mon 02:46:55 PM 39.9992 -75.3858 157° South 203 234 4,000 -150 Descending FAA TRACON SMA TRACON (SMA)
Mon 02:47:15 PM 39.9786 -75.3775 163° South 197 227 4,000  Level FAA TRACON SMA TRACON (SMA)
Mon 02:47:35 PM 39.9603 -75.3703 163° South 197 227 4,000  Level FAA TRACON SMA TRACON (SMA)
Mon 02:47:55 PM 39.9447 -75.3639 163° South 193 222 4,000  Level FAA TRACON SMA TRACON (SMA)
Mon 02:48:15 PM 39.9250 -75.3558 163° South 192 221 4,000  Level FAA TRACON SMA TRACON (SMA)
Mon 02:48:35 PM 39.9094 -75.3492 162° South 189 217 4,000  Level FAA TRACON SMA TRACON (SMA)
Mon 02:48:55 PM 39.8942 -75.3431 163° South 191 220 4,000  Level FAA TRACON SMA TRACON (SMA)
Mon 02:49:15 PM 39.8739 -75.3344 162° South 198 228 4,000  Level FAA TRACON SMA TRACON (SMA)
Mon 02:49:35 PM 39.8578 -75.3283 164° South 199 229 4,000 -500 Level FAA TRACON SMA TRACON (SMA)
Mon 02:50:15 PM 39.8253 -75.3142 161° South 187 215 3,500 -900 Descending FAA TRACON SMA TRACON (SMA)
Mon 02:50:35 PM 39.8086 -75.3083 165° South 182 209 3,100 -1,350 Descending FAA TRACON SMA TRACON (SMA)
Mon 02:50:55 PM 39.7931 -75.2981 153° Southeast 166 191 2,600 -1,200 Descending FAA TRACON SMA TRACON (SMA)
Mon 02:51:15 PM 39.7894 -75.2839 108° East 140 161 2,300 -857 Descending FAA TRACON SMA TRACON (SMA)
Mon 02:51:37 PM 39.7919 -75.2683 78° East 131 151 2,000 -600 Descending FAA TRACON SMA TRACON (SMA)
Mon 02:51:55 PM 39.7967 -75.2500 71° East 139 160 1,900 -316 Descending FAA TRACON SMA TRACON (SMA)
Mon 02:52:15 PM 39.8014 -75.2361 66° East 137 158 1,800 -293 Descending FAA TRACON SMA TRACON (SMA)
Mon 02:52:36 PM 39.8069 -75.2239 59° Northeast 129 148 1,700 -800 Descending FAA TRACON SMA TRACON (SMA)
Mon 02:53:15 PM 39.8278 -75.2097 28° Northeast 124 143 1,000 -915 Descending FAA TRACON SMA TRACON (SMA)
Mon 02:53:35 PM 39.8392 -75.2122 350° North 137 158 800 -750 Descending FAA TRACON SMA TRACON (SMA)
Mon 02:53:55 PM 39.8528 -75.2189 339° North 139 160 500 -878 Descending FAA TRACON SMA TRACON (SMA)
Mon 02:54:16 PM 39.8639 -75.2247 338° Northwest 141 162 200 -600 Descending FAA TRACON SMA TRACON (SMA)
Mon 02:54:35 PM 39.8692 -75.2272 340° North 137 158 100 -154 Descending FAA TRACON SMA TRACON (SMA)
Mon 02:54:55 PM 39.8692 -75.2272 207° Southwest 137 158 100  Level FAA TRACON SMA TRACON (SMA)
Mon 02:56:00 PM 39.8667 -75.2333 247° West  Level FlightAware Approximate

Login

Don't have an account? Register now (free) for customized features, flight alerts, and more!